sensor_id;sensor_type;location;lat;lon;timestamp;P1;durP1;ratioP1;P2;durP2;ratioP2
68680;SDS011;55836;49.858;6.756;2022-12-24T00:01:20;10.50;;;4.07;;
68680;SDS011;55836;49.858;6.756;2022-12-24T00:03:46;23.00;;;4.73;;
68680;SDS011;55836;49.858;6.756;2022-12-24T00:06:15;17.20;;;4.00;;
68680;SDS011;55836;49.858;6.756;2022-12-24T00:08:41;18.73;;;5.03;;
68680;SDS011;55836;49.858;6.756;2022-12-24T00:11:07;22.13;;;4.30;;
68680;SDS011;55836;49.858;6.756;2022-12-24T00:13:33;18.40;;;4.53;;
68680;SDS011;55836;49.858;6.756;2022-12-24T00:15:59;15.00;;;4.07;;
68680;SDS011;55836;49.858;6.756;2022-12-24T00:18:26;19.47;;;4.27;;
68680;SDS011;55836;49.858;6.756;2022-12-24T00:20:52;21.00;;;4.33;;
68680;SDS011;55836;49.858;6.756;2022-12-24T00:23:18;15.53;;;4.77;;
68680;SDS011;55836;49.858;6.756;2022-12-24T00:25:44;14.77;;;3.53;;
68680;SDS011;55836;49.858;6.756;2022-12-24T00:28:10;23.83;;;4.63;;
68680;SDS011;55836;49.858;6.756;2022-12-24T00:30:37;11.00;;;3.30;;
68680;SDS011;55836;49.858;6.756;2022-12-24T00:33:03;17.40;;;3.97;;
68680;SDS011;55836;49.858;6.756;2022-12-24T00:35:29;18.97;;;4.20;;
68680;SDS011;55836;49.858;6.756;2022-12-24T00:37:55;18.97;;;4.30;;
68680;SDS011;55836;49.858;6.756;2022-12-24T00:40:21;16.63;;;4.43;;
68680;SDS011;55836;49.858;6.756;2022-12-24T00:42:47;19.53;;;5.27;;
68680;SDS011;55836;49.858;6.756;2022-12-24T00:45:13;22.53;;;5.10;;
68680;SDS011;55836;49.858;6.756;2022-12-24T00:47:39;15.00;;;3.57;;
68680;SDS011;55836;49.858;6.756;2022-12-24T00:50:05;15.00;;;3.83;;
68680;SDS011;55836;49.858;6.756;2022-12-24T00:52:32;22.47;;;4.03;;
68680;SDS011;55836;49.858;6.756;2022-12-24T00:54:58;20.67;;;4.73;;
68680;SDS011;55836;49.858;6.756;2022-12-24T00:57:24;19.83;;;4.50;;
68680;SDS011;55836;49.858;6.756;2022-12-24T00:59:50;13.80;;;3.77;;
68680;SDS011;55836;49.858;6.756;2022-12-24T01:02:16;15.80;;;3.87;;
68680;SDS011;55836;49.858;6.756;2022-12-24T01:04:42;12.70;;;3.90;;
68680;SDS011;55836;49.858;6.756;2022-12-24T01:07:26;18.17;;;4.30;;
68680;SDS011;55836;49.858;6.756;2022-12-24T01:09:52;14.83;;;4.10;;
68680;SDS011;55836;49.858;6.756;2022-12-24T01:12:18;18.50;;;4.03;;
68680;SDS011;55836;49.858;6.756;2022-12-24T01:14:44;18.07;;;4.73;;
68680;SDS011;55836;49.858;6.756;2022-12-24T01:17:10;15.17;;;4.10;;
68680;SDS011;55836;49.858;6.756;2022-12-24T01:19:36;20.77;;;6.53;;
68680;SDS011;55836;49.858;6.756;2022-12-24T01:22:02;17.30;;;3.87;;
68680;SDS011;55836;49.858;6.756;2022-12-24T01:24:28;19.10;;;4.57;;
68680;SDS011;55836;49.858;6.756;2022-12-24T01:26:54;18.07;;;4.03;;
68680;SDS011;55836;49.858;6.756;2022-12-24T01:29:20;20.47;;;4.20;;
68680;SDS011;55836;49.858;6.756;2022-12-24T01:31:46;22.10;;;4.33;;
68680;SDS011;55836;49.858;6.756;2022-12-24T01:34:12;16.37;;;5.10;;
68680;SDS011;55836;49.858;6.756;2022-12-24T01:36:38;20.73;;;4.20;;
68680;SDS011;55836;49.858;6.756;2022-12-24T01:39:04;22.10;;;4.23;;
68680;SDS011;55836;49.858;6.756;2022-12-24T01:41:30;14.50;;;3.83;;
68680;SDS011;55836;49.858;6.756;2022-12-24T01:46:48;15.27;;;4.07;;
68680;SDS011;55836;49.858;6.756;2022-12-24T01:49:16;19.73;;;4.30;;
68680;SDS011;55836;49.858;6.756;2022-12-24T01:51:43;16.87;;;3.67;;
68680;SDS011;55836;49.858;6.756;2022-12-24T01:54:19;13.67;;;3.93;;
68680;SDS011;55836;49.858;6.756;2022-12-24T01:56:48;17.90;;;3.57;;
68680;SDS011;55836;49.858;6.756;2022-12-24T01:59:15;19.27;;;3.90;;
68680;SDS011;55836;49.858;6.756;2022-12-24T02:01:43;16.97;;;4.43;;
68680;SDS011;55836;49.858;6.756;2022-12-24T02:04:28;17.83;;;4.53;;
68680;SDS011;55836;49.858;6.756;2022-12-24T02:06:57;15.43;;;3.83;;
68680;SDS011;55836;49.858;6.756;2022-12-24T02:09:23;16.87;;;3.90;;
68680;SDS011;55836;49.858;6.756;2022-12-24T02:11:49;18.53;;;4.53;;
68680;SDS011;55836;49.858;6.756;2022-12-24T02:14:15;25.33;;;4.57;;
68680;SDS011;55836;49.858;6.756;2022-12-24T02:22:17;16.20;;;3.67;;
68680;SDS011;55836;49.858;6.756;2022-12-24T02:32:25;17.13;;;4.87;;
68680;SDS011;55836;49.858;6.756;2022-12-24T02:34:57;23.53;;;3.83;;
68680;SDS011;55836;49.858;6.756;2022-12-24T02:37:30;12.57;;;4.00;;
68680;SDS011;55836;49.858;6.756;2022-12-24T02:40:00;13.50;;;3.80;;
68680;SDS011;55836;49.858;6.756;2022-12-24T02:42:28;18.87;;;3.30;;
68680;SDS011;55836;49.858;6.756;2022-12-24T02:45:00;22.20;;;4.70;;
68680;SDS011;55836;49.858;6.756;2022-12-24T02:47:27;24.07;;;4.53;;
68680;SDS011;55836;49.858;6.756;2022-12-24T02:49:54;20.43;;;4.53;;
68680;SDS011;55836;49.858;6.756;2022-12-24T02:52:27;18.67;;;3.77;;
68680;SDS011;55836;49.858;6.756;2022-12-24T02:54:54;20.77;;;3.83;;
68680;SDS011;55836;49.858;6.756;2022-12-24T02:57:24;15.33;;;3.50;;
68680;SDS011;55836;49.858;6.756;2022-12-24T02:59:58;22.03;;;5.77;;
68680;SDS011;55836;49.858;6.756;2022-12-24T03:02:32;21.57;;;4.63;;
68680;SDS011;55836;49.858;6.756;2022-12-24T03:05:16;15.33;;;4.20;;
68680;SDS011;55836;49.858;6.756;2022-12-24T03:10:30;15.83;;;3.90;;
68680;SDS011;55836;49.858;6.756;2022-12-24T03:13:00;14.33;;;3.83;;
68680;SDS011;55836;49.858;6.756;2022-12-24T03:15:27;14.73;;;3.70;;
68680;SDS011;55836;49.858;6.756;2022-12-24T03:17:56;17.27;;;4.17;;
68680;SDS011;55836;49.858;6.756;2022-12-24T03:21:06;27.60;;;3.77;;
68680;SDS011;55836;49.858;6.756;2022-12-24T03:23:12;17.60;;;4.00;;
68680;SDS011;55836;49.858;6.756;2022-12-24T03:25:39;19.90;;;4.77;;
68680;SDS011;55836;49.858;6.756;2022-12-24T03:28:05;13.23;;;3.03;;
68680;SDS011;55836;49.858;6.756;2022-12-24T03:30:32;16.23;;;3.50;;
68680;SDS011;55836;49.858;6.756;2022-12-24T03:32:58;19.13;;;4.60;;
68680;SDS011;55836;49.858;6.756;2022-12-24T03:35:24;24.67;;;4.23;;
68680;SDS011;55836;49.858;6.756;2022-12-24T03:37:50;17.63;;;3.87;;
68680;SDS011;55836;49.858;6.756;2022-12-24T03:40:17;15.03;;;4.27;;
68680;SDS011;55836;49.858;6.756;2022-12-24T03:42:43;20.13;;;4.83;;
68680;SDS011;55836;49.858;6.756;2022-12-24T03:45:09;16.77;;;3.93;;
68680;SDS011;55836;49.858;6.756;2022-12-24T03:47:35;12.37;;;3.90;;
68680;SDS011;55836;49.858;6.756;2022-12-24T03:50:01;14.30;;;3.67;;
68680;SDS011;55836;49.858;6.756;2022-12-24T03:52:27;12.93;;;4.53;;
68680;SDS011;55836;49.858;6.756;2022-12-24T03:54:53;19.13;;;4.43;;
68680;SDS011;55836;49.858;6.756;2022-12-24T03:57:19;21.70;;;4.27;;
68680;SDS011;55836;49.858;6.756;2022-12-24T03:59:45;17.60;;;4.17;;
68680;SDS011;55836;49.858;6.756;2022-12-24T04:02:11;21.93;;;5.00;;
68680;SDS011;55836;49.858;6.756;2022-12-24T04:04:37;20.03;;;4.70;;
68680;SDS011;55836;49.858;6.756;2022-12-24T04:07:04;15.87;;;5.67;;
68680;SDS011;55836;49.858;6.756;2022-12-24T04:09:30;15.97;;;4.63;;
68680;SDS011;55836;49.858;6.756;2022-12-24T04:11:56;15.27;;;3.97;;
68680;SDS011;55836;49.858;6.756;2022-12-24T04:14:22;17.23;;;4.33;;
68680;SDS011;55836;49.858;6.756;2022-12-24T04:16:48;10.80;;;3.80;;
68680;SDS011;55836;49.858;6.756;2022-12-24T04:19:14;12.90;;;3.97;;
68680;SDS011;55836;49.858;6.756;2022-12-24T04:21:40;15.57;;;4.03;;
68680;SDS011;55836;49.858;6.756;2022-12-24T04:24:06;16.83;;;4.23;;
68680;SDS011;55836;49.858;6.756;2022-12-24T04:26:32;18.93;;;4.40;;
68680;SDS011;55836;49.858;6.756;2022-12-24T04:28:58;14.37;;;3.50;;
68680;SDS011;55836;49.858;6.756;2022-12-24T04:31:24;13.60;;;4.03;;
68680;SDS011;55836;49.858;6.756;2022-12-24T04:33:50;10.50;;;3.40;;
68680;SDS011;55836;49.858;6.756;2022-12-24T04:36:17;15.50;;;4.80;;
68680;SDS011;55836;49.858;6.756;2022-12-24T04:38:44;15.23;;;4.27;;
68680;SDS011;55836;49.858;6.756;2022-12-24T04:41:11;13.33;;;3.47;;
68680;SDS011;55836;49.858;6.756;2022-12-24T04:43:37;22.70;;;4.30;;
68680;SDS011;55836;49.858;6.756;2022-12-24T04:46:07;15.90;;;4.40;;
68680;SDS011;55836;49.858;6.756;2022-12-24T04:48:33;21.73;;;5.27;;
68680;SDS011;55836;49.858;6.756;2022-12-24T04:51:00;29.60;;;5.00;;
68680;SDS011;55836;49.858;6.756;2022-12-24T04:53:27;23.57;;;6.03;;
68680;SDS011;55836;49.858;6.756;2022-12-24T04:55:53;17.53;;;4.40;;
68680;SDS011;55836;49.858;6.756;2022-12-24T04:58:19;15.97;;;4.97;;
68680;SDS011;55836;49.858;6.756;2022-12-24T05:00:45;15.93;;;4.30;;
68680;SDS011;55836;49.858;6.756;2022-12-24T05:03:11;16.90;;;3.87;;
68680;SDS011;55836;49.858;6.756;2022-12-24T05:05:37;25.20;;;5.33;;
68680;SDS011;55836;49.858;6.756;2022-12-24T05:08:03;20.80;;;4.70;;
68680;SDS011;55836;49.858;6.756;2022-12-24T05:10:30;23.70;;;5.70;;
68680;SDS011;55836;49.858;6.756;2022-12-24T05:12:56;22.67;;;5.13;;
68680;SDS011;55836;49.858;6.756;2022-12-24T05:15:22;23.83;;;4.83;;
68680;SDS011;55836;49.858;6.756;2022-12-24T05:17:48;26.90;;;6.17;;
68680;SDS011;55836;49.858;6.756;2022-12-24T05:20:14;21.20;;;4.77;;
68680;SDS011;55836;49.858;6.756;2022-12-24T05:22:40;27.87;;;5.87;;
68680;SDS011;55836;49.858;6.756;2022-12-24T05:25:26;26.87;;;5.63;;
68680;SDS011;55836;49.858;6.756;2022-12-24T05:28:14;27.77;;;5.43;;
68680;SDS011;55836;49.858;6.756;2022-12-24T05:30:41;29.27;;;6.37;;
68680;SDS011;55836;49.858;6.756;2022-12-24T05:33:07;32.40;;;5.57;;
68680;SDS011;55836;49.858;6.756;2022-12-24T05:35:33;24.97;;;5.70;;
68680;SDS011;55836;49.858;6.756;2022-12-24T05:37:59;25.67;;;5.60;;
68680;SDS011;55836;49.858;6.756;2022-12-24T05:40:25;18.30;;;4.40;;
68680;SDS011;55836;49.858;6.756;2022-12-24T05:42:51;33.27;;;5.23;;
68680;SDS011;55836;49.858;6.756;2022-12-24T05:45:17;28.67;;;6.00;;
68680;SDS011;55836;49.858;6.756;2022-12-24T05:47:43;21.97;;;5.27;;
68680;SDS011;55836;49.858;6.756;2022-12-24T05:50:09;22.07;;;5.07;;
68680;SDS011;55836;49.858;6.756;2022-12-24T05:52:36;26.10;;;5.50;;
68680;SDS011;55836;49.858;6.756;2022-12-24T05:55:02;31.50;;;7.37;;
68680;SDS011;55836;49.858;6.756;2022-12-24T05:57:28;21.27;;;6.03;;
68680;SDS011;55836;49.858;6.756;2022-12-24T05:59:54;23.00;;;5.97;;
68680;SDS011;55836;49.858;6.756;2022-12-24T06:02:20;26.20;;;5.87;;
68680;SDS011;55836;49.858;6.756;2022-12-24T06:04:46;24.70;;;5.80;;
68680;SDS011;55836;49.858;6.756;2022-12-24T06:07:12;19.33;;;5.30;;
68680;SDS011;55836;49.858;6.756;2022-12-24T06:09:38;28.90;;;5.43;;
68680;SDS011;55836;49.858;6.756;2022-12-24T06:12:04;24.20;;;5.93;;
68680;SDS011;55836;49.858;6.756;2022-12-24T06:14:30;17.27;;;4.83;;
68680;SDS011;55836;49.858;6.756;2022-12-24T06:16:56;32.10;;;6.13;;
68680;SDS011;55836;49.858;6.756;2022-12-24T06:19:22;28.00;;;5.90;;
68680;SDS011;55836;49.858;6.756;2022-12-24T06:21:48;32.23;;;5.40;;
68680;SDS011;55836;49.858;6.756;2022-12-24T06:24:14;27.40;;;5.97;;
68680;SDS011;55836;49.858;6.756;2022-12-24T06:26:40;19.47;;;4.80;;
68680;SDS011;55836;49.858;6.756;2022-12-24T06:29:06;21.63;;;5.50;;
68680;SDS011;55836;49.858;6.756;2022-12-24T06:31:32;23.23;;;6.20;;
68680;SDS011;55836;49.858;6.756;2022-12-24T06:33:58;28.50;;;7.87;;
68680;SDS011;55836;49.858;6.756;2022-12-24T06:36:24;33.50;;;6.73;;
68680;SDS011;55836;49.858;6.756;2022-12-24T06:38:51;26.10;;;6.40;;
68680;SDS011;55836;49.858;6.756;2022-12-24T06:41:18;22.43;;;5.20;;
68680;SDS011;55836;49.858;6.756;2022-12-24T06:43:44;26.90;;;5.80;;
68680;SDS011;55836;49.858;6.756;2022-12-24T06:46:11;27.43;;;6.20;;
68680;SDS011;55836;49.858;6.756;2022-12-24T06:48:37;27.07;;;5.90;;
68680;SDS011;55836;49.858;6.756;2022-12-24T06:51:03;22.87;;;7.00;;
68680;SDS011;55836;49.858;6.756;2022-12-24T06:53:30;20.80;;;8.43;;
68680;SDS011;55836;49.858;6.756;2022-12-24T06:56:09;27.97;;;9.93;;
68680;SDS011;55836;49.858;6.756;2022-12-24T06:58:35;31.97;;;12.03;;
68680;SDS011;55836;49.858;6.756;2022-12-24T07:01:03;28.00;;;8.87;;
68680;SDS011;55836;49.858;6.756;2022-12-24T07:03:29;24.93;;;7.30;;
68680;SDS011;55836;49.858;6.756;2022-12-24T07:05:55;36.33;;;10.43;;
68680;SDS011;55836;49.858;6.756;2022-12-24T07:08:21;27.03;;;6.80;;
68680;SDS011;55836;49.858;6.756;2022-12-24T07:10:48;27.80;;;7.60;;
68680;SDS011;55836;49.858;6.756;2022-12-24T07:13:14;24.27;;;7.40;;
68680;SDS011;55836;49.858;6.756;2022-12-24T07:15:40;25.90;;;5.37;;
68680;SDS011;55836;49.858;6.756;2022-12-24T07:18:06;29.80;;;5.87;;
68680;SDS011;55836;49.858;6.756;2022-12-24T07:20:32;30.53;;;6.33;;
68680;SDS011;55836;49.858;6.756;2022-12-24T07:22:58;27.03;;;6.10;;
68680;SDS011;55836;49.858;6.756;2022-12-24T07:25:25;26.00;;;5.63;;
68680;SDS011;55836;49.858;6.756;2022-12-24T07:27:51;30.40;;;5.63;;
68680;SDS011;55836;49.858;6.756;2022-12-24T07:30:17;28.20;;;5.53;;
68680;SDS011;55836;49.858;6.756;2022-12-24T07:32:43;25.67;;;6.10;;
68680;SDS011;55836;49.858;6.756;2022-12-24T07:35:09;27.33;;;5.37;;
68680;SDS011;55836;49.858;6.756;2022-12-24T07:37:35;24.87;;;5.53;;
68680;SDS011;55836;49.858;6.756;2022-12-24T07:40:01;29.27;;;5.87;;
68680;SDS011;55836;49.858;6.756;2022-12-24T07:42:31;27.50;;;6.13;;
68680;SDS011;55836;49.858;6.756;2022-12-24T07:44:58;31.77;;;7.23;;
68680;SDS011;55836;49.858;6.756;2022-12-24T07:47:24;30.93;;;6.70;;
68680;SDS011;55836;49.858;6.756;2022-12-24T07:49:50;25.00;;;5.67;;
68680;SDS011;55836;49.858;6.756;2022-12-24T07:52:16;28.07;;;7.23;;
68680;SDS011;55836;49.858;6.756;2022-12-24T07:54:42;24.50;;;6.50;;
68680;SDS011;55836;49.858;6.756;2022-12-24T07:57:08;24.13;;;7.57;;
68680;SDS011;55836;49.858;6.756;2022-12-24T07:59:34;25.57;;;6.20;;
68680;SDS011;55836;49.858;6.756;2022-12-24T08:02:00;25.23;;;6.53;;
68680;SDS011;55836;49.858;6.756;2022-12-24T08:04:26;27.97;;;7.53;;
68680;SDS011;55836;49.858;6.756;2022-12-24T08:06:52;21.37;;;6.00;;
68680;SDS011;55836;49.858;6.756;2022-12-24T08:09:18;29.37;;;6.27;;
68680;SDS011;55836;49.858;6.756;2022-12-24T08:11:44;29.80;;;7.07;;
68680;SDS011;55836;49.858;6.756;2022-12-24T08:14:10;28.57;;;6.77;;
68680;SDS011;55836;49.858;6.756;2022-12-24T08:16:36;26.37;;;5.63;;
68680;SDS011;55836;49.858;6.756;2022-12-24T08:19:02;22.07;;;4.83;;
68680;SDS011;55836;49.858;6.756;2022-12-24T08:21:28;24.90;;;6.60;;
68680;SDS011;55836;49.858;6.756;2022-12-24T08:23:54;20.83;;;6.17;;
68680;SDS011;55836;49.858;6.756;2022-12-24T08:26:20;28.03;;;7.00;;
68680;SDS011;55836;49.858;6.756;2022-12-24T08:28:46;32.83;;;6.90;;
68680;SDS011;55836;49.858;6.756;2022-12-24T08:31:12;25.70;;;5.60;;
68680;SDS011;55836;49.858;6.756;2022-12-24T08:33:39;30.70;;;7.67;;
68680;SDS011;55836;49.858;6.756;2022-12-24T08:36:05;29.77;;;6.70;;
68680;SDS011;55836;49.858;6.756;2022-12-24T08:38:31;30.47;;;6.33;;
68680;SDS011;55836;49.858;6.756;2022-12-24T08:40:57;26.03;;;6.67;;
68680;SDS011;55836;49.858;6.756;2022-12-24T08:43:24;27.80;;;7.20;;
68680;SDS011;55836;49.858;6.756;2022-12-24T08:45:50;28.50;;;6.70;;
68680;SDS011;55836;49.858;6.756;2022-12-24T08:48:16;29.80;;;7.37;;
68680;SDS011;55836;49.858;6.756;2022-12-24T08:50:43;31.37;;;7.73;;
68680;SDS011;55836;49.858;6.756;2022-12-24T08:53:09;28.30;;;6.80;;
68680;SDS011;55836;49.858;6.756;2022-12-24T08:55:35;27.10;;;5.97;;
68680;SDS011;55836;49.858;6.756;2022-12-24T08:58:01;24.87;;;6.10;;
68680;SDS011;55836;49.858;6.756;2022-12-24T09:00:27;23.30;;;6.60;;
68680;SDS011;55836;49.858;6.756;2022-12-24T09:02:54;29.60;;;8.03;;
68680;SDS011;55836;49.858;6.756;2022-12-24T09:05:20;29.77;;;6.10;;
68680;SDS011;55836;49.858;6.756;2022-12-24T09:07:46;24.97;;;6.53;;
68680;SDS011;55836;49.858;6.756;2022-12-24T09:10:12;23.00;;;6.20;;
68680;SDS011;55836;49.858;6.756;2022-12-24T09:12:38;28.27;;;6.43;;
68680;SDS011;55836;49.858;6.756;2022-12-24T09:15:04;37.37;;;7.93;;
68680;SDS011;55836;49.858;6.756;2022-12-24T09:17:32;23.57;;;6.20;;
68680;SDS011;55836;49.858;6.756;2022-12-24T09:19:58;34.87;;;8.50;;
68680;SDS011;55836;49.858;6.756;2022-12-24T09:22:24;30.27;;;7.47;;
68680;SDS011;55836;49.858;6.756;2022-12-24T09:24:52;21.10;;;7.87;;
68680;SDS011;55836;49.858;6.756;2022-12-24T09:27:18;22.40;;;6.37;;
68680;SDS011;55836;49.858;6.756;2022-12-24T09:29:44;24.23;;;7.57;;
68680;SDS011;55836;49.858;6.756;2022-12-24T09:32:10;27.40;;;6.37;;
68680;SDS011;55836;49.858;6.756;2022-12-24T09:34:36;31.13;;;8.23;;
68680;SDS011;55836;49.858;6.756;2022-12-24T09:37:02;27.40;;;7.80;;
68680;SDS011;55836;49.858;6.756;2022-12-24T09:39:28;30.80;;;6.37;;
68680;SDS011;55836;49.858;6.756;2022-12-24T09:42:02;24.10;;;7.43;;
68680;SDS011;55836;49.858;6.756;2022-12-24T09:47:07;28.43;;;7.10;;
68680;SDS011;55836;49.858;6.756;2022-12-24T09:49:37;30.33;;;8.07;;
68680;SDS011;55836;49.858;6.756;2022-12-24T09:52:05;31.77;;;7.90;;
68680;SDS011;55836;49.858;6.756;2022-12-24T09:54:34;38.03;;;7.93;;
68680;SDS011;55836;49.858;6.756;2022-12-24T09:57:13;31.13;;;7.97;;
68680;SDS011;55836;49.858;6.756;2022-12-24T09:59:41;29.07;;;6.77;;
68680;SDS011;55836;49.858;6.756;2022-12-24T10:02:11;23.33;;;6.17;;
68680;SDS011;55836;49.858;6.756;2022-12-24T10:04:38;33.20;;;9.90;;
68680;SDS011;55836;49.858;6.756;2022-12-24T10:12:36;32.33;;;6.97;;
68680;SDS011;55836;49.858;6.756;2022-12-24T10:15:09;25.03;;;7.53;;
68680;SDS011;55836;49.858;6.756;2022-12-24T10:18:43;25.17;;;6.93;;
68680;SDS011;55836;49.858;6.756;2022-12-24T10:25:52;27.23;;;6.83;;
68680;SDS011;55836;49.858;6.756;2022-12-24T10:28:23;34.70;;;8.93;;
68680;SDS011;55836;49.858;6.756;2022-12-24T10:30:57;34.27;;;8.03;;
68680;SDS011;55836;49.858;6.756;2022-12-24T10:33:28;31.67;;;6.20;;
68680;SDS011;55836;49.858;6.756;2022-12-24T10:35:56;26.63;;;6.60;;
68680;SDS011;55836;49.858;6.756;2022-12-24T10:38:23;29.73;;;7.67;;
68680;SDS011;55836;49.858;6.756;2022-12-24T10:40:51;24.97;;;6.87;;
68680;SDS011;55836;49.858;6.756;2022-12-24T10:43:19;32.87;;;6.83;;
68680;SDS011;55836;49.858;6.756;2022-12-24T10:49:03;54.07;;;20.10;;
68680;SDS011;55836;49.858;6.756;2022-12-24T10:51:12;30.90;;;9.13;;
68680;SDS011;55836;49.858;6.756;2022-12-24T10:53:43;32.60;;;7.67;;
68680;SDS011;55836;49.858;6.756;2022-12-24T10:56:11;30.40;;;6.87;;
68680;SDS011;55836;49.858;6.756;2022-12-24T10:58:44;29.73;;;6.90;;
68680;SDS011;55836;49.858;6.756;2022-12-24T11:01:12;31.00;;;8.03;;
68680;SDS011;55836;49.858;6.756;2022-12-24T11:03:38;33.23;;;7.70;;
68680;SDS011;55836;49.858;6.756;2022-12-24T11:08:30;37.43;;;7.80;;
68680;SDS011;55836;49.858;6.756;2022-12-24T11:10:59;29.53;;;7.43;;
68680;SDS011;55836;49.858;6.756;2022-12-24T11:13:26;37.07;;;8.73;;
68680;SDS011;55836;49.858;6.756;2022-12-24T11:16:06;31.97;;;10.30;;
68680;SDS011;55836;49.858;6.756;2022-12-24T11:18:43;40.53;;;11.93;;
68680;SDS011;55836;49.858;6.756;2022-12-24T11:21:10;32.63;;;12.73;;
68680;SDS011;55836;49.858;6.756;2022-12-24T11:23:36;30.03;;;10.03;;
68680;SDS011;55836;49.858;6.756;2022-12-24T11:26:02;44.37;;;9.57;;
68680;SDS011;55836;49.858;6.756;2022-12-24T11:28:29;33.70;;;7.67;;
68680;SDS011;55836;49.858;6.756;2022-12-24T11:31:00;31.13;;;7.67;;
68680;SDS011;55836;49.858;6.756;2022-12-24T11:33:27;32.00;;;7.50;;
68680;SDS011;55836;49.858;6.756;2022-12-24T11:35:55;37.33;;;7.70;;
68680;SDS011;55836;49.858;6.756;2022-12-24T11:38:23;35.73;;;8.40;;
68680;SDS011;55836;49.858;6.756;2022-12-24T11:40:56;26.23;;;6.43;;
68680;SDS011;55836;49.858;6.756;2022-12-24T11:43:23;32.30;;;6.73;;
68680;SDS011;55836;49.858;6.756;2022-12-24T11:45:50;29.10;;;6.90;;
68680;SDS011;55836;49.858;6.756;2022-12-24T11:48:30;27.77;;;7.07;;
68680;SDS011;55836;49.858;6.756;2022-12-24T11:51:04;25.53;;;7.40;;
68680;SDS011;55836;49.858;6.756;2022-12-24T11:53:35;35.17;;;9.40;;
68680;SDS011;55836;49.858;6.756;2022-12-24T11:56:05;30.83;;;7.07;;
68680;SDS011;55836;49.858;6.756;2022-12-24T11:58:42;30.80;;;7.60;;
68680;SDS011;55836;49.858;6.756;2022-12-24T12:03:55;33.57;;;7.63;;
68680;SDS011;55836;49.858;6.756;2022-12-24T12:06:36;33.50;;;9.30;;
68680;SDS011;55836;49.858;6.756;2022-12-24T12:09:18;22.20;;;6.33;;
68680;SDS011;55836;49.858;6.756;2022-12-24T12:11:47;30.07;;;7.03;;
68680;SDS011;55836;49.858;6.756;2022-12-24T12:14:37;26.93;;;8.17;;
68680;SDS011;55836;49.858;6.756;2022-12-24T12:17:25;34.00;;;8.57;;
68680;SDS011;55836;49.858;6.756;2022-12-24T12:19:48;25.90;;;8.47;;
68680;SDS011;55836;49.858;6.756;2022-12-24T12:22:28;31.50;;;8.00;;
68680;SDS011;55836;49.858;6.756;2022-12-24T12:24:55;25.33;;;7.80;;
68680;SDS011;55836;49.858;6.756;2022-12-24T12:27:35;27.63;;;7.67;;
68680;SDS011;55836;49.858;6.756;2022-12-24T12:30:09;31.00;;;7.63;;
68680;SDS011;55836;49.858;6.756;2022-12-24T12:32:41;25.63;;;7.07;;
68680;SDS011;55836;49.858;6.756;2022-12-24T12:35:15;27.60;;;7.57;;
68680;SDS011;55836;49.858;6.756;2022-12-24T12:37:51;23.27;;;6.63;;
68680;SDS011;55836;49.858;6.756;2022-12-24T12:40:19;31.77;;;7.47;;
68680;SDS011;55836;49.858;6.756;2022-12-24T12:42:54;28.77;;;7.50;;
68680;SDS011;55836;49.858;6.756;2022-12-24T12:45:44;23.27;;;6.27;;
68680;SDS011;55836;49.858;6.756;2022-12-24T12:56:24;46.30;;;14.47;;
68680;SDS011;55836;49.858;6.756;2022-12-24T13:04:09;35.47;;;9.43;;
68680;SDS011;55836;49.858;6.756;2022-12-24T13:12:07;27.00;;;9.23;;
68680;SDS011;55836;49.858;6.756;2022-12-24T13:14:44;24.43;;;7.97;;
68680;SDS011;55836;49.858;6.756;2022-12-24T13:22:20;17.87;;;6.37;;
68680;SDS011;55836;49.858;6.756;2022-12-24T13:24:55;21.67;;;6.53;;
68680;SDS011;55836;49.858;6.756;2022-12-24T13:27:22;29.57;;;8.87;;
68680;SDS011;55836;49.858;6.756;2022-12-24T13:34:48;21.27;;;6.67;;
68680;SDS011;55836;49.858;6.756;2022-12-24T13:37:21;23.90;;;8.43;;
68680;SDS011;55836;49.858;6.756;2022-12-24T13:53:02;22.03;;;5.83;;
68680;SDS011;55836;49.858;6.756;2022-12-24T13:55:29;23.80;;;5.70;;
68680;SDS011;55836;49.858;6.756;2022-12-24T13:57:57;18.63;;;5.50;;
68680;SDS011;55836;49.858;6.756;2022-12-24T14:05:18;21.87;;;6.73;;
68680;SDS011;55836;49.858;6.756;2022-12-24T14:07:46;19.30;;;7.33;;
68680;SDS011;55836;49.858;6.756;2022-12-24T14:10:24;13.77;;;5.77;;
68680;SDS011;55836;49.858;6.756;2022-12-24T14:12:51;19.90;;;8.53;;
68680;SDS011;55836;49.858;6.756;2022-12-24T14:18:02;11.17;;;5.27;;
68680;SDS011;55836;49.858;6.756;2022-12-24T14:20:30;12.83;;;4.47;;
68680;SDS011;55836;49.858;6.756;2022-12-24T14:22:57;12.73;;;4.67;;
68680;SDS011;55836;49.858;6.756;2022-12-24T14:25:23;11.40;;;3.90;;
68680;SDS011;55836;49.858;6.756;2022-12-24T14:27:54;11.30;;;4.23;;
68680;SDS011;55836;49.858;6.756;2022-12-24T14:30:28;14.43;;;5.10;;
68680;SDS011;55836;49.858;6.756;2022-12-24T14:32:55;9.70;;;4.43;;
68680;SDS011;55836;49.858;6.756;2022-12-24T14:37:51;13.60;;;5.67;;
68680;SDS011;55836;49.858;6.756;2022-12-24T14:40:24;14.07;;;5.50;;
68680;SDS011;55836;49.858;6.756;2022-12-24T14:48:13;16.67;;;5.67;;
68680;SDS011;55836;49.858;6.756;2022-12-24T14:56:14;16.10;;;6.60;;
68680;SDS011;55836;49.858;6.756;2022-12-24T14:58:41;11.90;;;4.80;;
68680;SDS011;55836;49.858;6.756;2022-12-24T15:04:04;20.73;;;7.67;;
68680;SDS011;55836;49.858;6.756;2022-12-24T15:06:40;21.87;;;6.97;;
68680;SDS011;55836;49.858;6.756;2022-12-24T15:09:13;18.03;;;7.87;;
68680;SDS011;55836;49.858;6.756;2022-12-24T15:11:44;17.13;;;6.20;;
68680;SDS011;55836;49.858;6.756;2022-12-24T15:14:11;18.33;;;7.17;;
68680;SDS011;55836;49.858;6.756;2022-12-24T15:16:38;17.67;;;5.93;;
68680;SDS011;55836;49.858;6.756;2022-12-24T15:19:05;17.10;;;6.70;;
68680;SDS011;55836;49.858;6.756;2022-12-24T15:21:35;20.17;;;7.73;;
68680;SDS011;55836;49.858;6.756;2022-12-24T15:24:08;24.00;;;8.37;;
68680;SDS011;55836;49.858;6.756;2022-12-24T15:26:47;28.70;;;10.73;;
68680;SDS011;55836;49.858;6.756;2022-12-24T15:29:18;16.93;;;8.40;;
68680;SDS011;55836;49.858;6.756;2022-12-24T15:31:47;23.67;;;8.87;;
68680;SDS011;55836;49.858;6.756;2022-12-24T15:34:26;17.63;;;6.23;;
68680;SDS011;55836;49.858;6.756;2022-12-24T15:36:59;24.47;;;7.37;;
68680;SDS011;55836;49.858;6.756;2022-12-24T15:39:25;25.23;;;7.63;;
68680;SDS011;55836;49.858;6.756;2022-12-24T15:41:51;21.47;;;7.47;;
68680;SDS011;55836;49.858;6.756;2022-12-24T15:44:36;24.00;;;8.13;;
68680;SDS011;55836;49.858;6.756;2022-12-24T15:47:04;28.63;;;13.43;;
68680;SDS011;55836;49.858;6.756;2022-12-24T15:49:31;23.00;;;11.37;;
68680;SDS011;55836;49.858;6.756;2022-12-24T15:52:02;32.83;;;15.63;;
68680;SDS011;55836;49.858;6.756;2022-12-24T15:54:28;31.43;;;16.07;;
68680;SDS011;55836;49.858;6.756;2022-12-24T15:59:31;31.33;;;11.80;;
68680;SDS011;55836;49.858;6.756;2022-12-24T16:03:02;30.40;;;12.60;;
68680;SDS011;55836;49.858;6.756;2022-12-24T16:07:42;21.13;;;10.10;;
68680;SDS011;55836;49.858;6.756;2022-12-24T16:10:33;23.03;;;9.07;;
68680;SDS011;55836;49.858;6.756;2022-12-24T16:13:02;22.60;;;8.47;;
68680;SDS011;55836;49.858;6.756;2022-12-24T16:15:28;20.43;;;9.63;;
68680;SDS011;55836;49.858;6.756;2022-12-24T16:17:54;26.33;;;9.37;;
68680;SDS011;55836;49.858;6.756;2022-12-24T16:20:21;18.10;;;9.90;;
68680;SDS011;55836;49.858;6.756;2022-12-24T16:22:48;25.17;;;11.47;;
68680;SDS011;55836;49.858;6.756;2022-12-24T16:27:45;24.83;;;12.77;;
68680;SDS011;55836;49.858;6.756;2022-12-24T16:30:11;25.63;;;13.23;;
68680;SDS011;55836;49.858;6.756;2022-12-24T16:32:37;22.23;;;11.67;;
68680;SDS011;55836;49.858;6.756;2022-12-24T16:35:06;23.87;;;9.30;;